Terminal Aerodrome Forecast
Issued by NWS La Crosse, WI

Home | Current Version | Previous Version | Text Only | Print | Product List | Glossary On
Versions: 1 2 3 4 5 6 7 8 9 10 11 12 13 14 15 16 17 18 19 20 21 22 23 24 25 26 27 28
860
FTUS43 KARX 212320
TAFRST
TAF
KRST 212320Z 2200/2224 VRB04KT P6SM FEW250
     FM220700 09005KT P6SM BKN080
     FM221500 09009KT P6SM -SN OVC050
     FM222300 11012KT 4SM -SN OVC020=

USA.gov is the U.S. government's official web portal to all federal, state and local government web resources and services.